createdAt,value
2022-12-15T00:02:17.984Z,-2.68
2022-12-15T00:05:03.096Z,-3.03
2022-12-15T00:07:48.562Z,-2.79
2022-12-15T00:10:34.224Z,-2.75
2022-12-15T00:13:21.081Z,-2.83
2022-12-15T00:16:10.795Z,-2.90
2022-12-15T00:18:55.990Z,-2.66
2022-12-15T00:21:43.830Z,-2.66
2022-12-15T00:24:28.698Z,-2.84
2022-12-15T00:27:13.468Z,-2.78
2022-12-15T00:30:00.256Z,-2.82
2022-12-15T00:32:45.467Z,-2.67
2022-12-15T00:35:33.033Z,-2.72
2022-12-15T00:38:25.327Z,-2.81
2022-12-15T00:40:59.524Z,-2.65
2022-12-15T00:43:28.017Z,-2.60
2022-12-15T00:46:18.020Z,-2.66
2022-12-15T00:48:48.441Z,-2.79
2022-12-15T00:51:15.831Z,-2.74
2022-12-15T00:54:01.932Z,-2.94
2022-12-15T00:56:47.625Z,-3.23
2022-12-15T00:59:33.413Z,-3.22
2022-12-15T01:02:21.057Z,-2.89
2022-12-15T01:05:07.039Z,-2.70
2022-12-15T01:07:58.205Z,-2.81
2022-12-15T01:10:43.023Z,-2.84
2022-12-15T01:13:32.297Z,-2.93
2022-12-15T01:16:17.745Z,-3.02
2022-12-15T01:19:04.311Z,-3.04
2022-12-15T01:21:33.143Z,-3.21
2022-12-15T01:24:00.549Z,-4.02
2022-12-15T01:26:27.989Z,-3.21
2022-12-15T01:28:55.374Z,-2.97
2022-12-15T01:31:22.845Z,-3.24
2022-12-15T01:33:54.435Z,-3.11
2022-12-15T01:36:21.834Z,-3.21
2022-12-15T01:38:53.835Z,-3.03
2022-12-15T01:41:21.001Z,-2.94
2022-12-15T01:43:49.794Z,-2.66
2022-12-15T01:46:20.050Z,-2.69
2022-12-15T01:48:49.964Z,-3.02
2022-12-15T01:51:27.879Z,-3.07
2022-12-15T01:54:03.776Z,-2.79
2022-12-15T01:56:37.628Z,-2.46
2022-12-15T01:59:08.384Z,-2.44
2022-12-15T02:01:36.232Z,-2.50
2022-12-15T02:04:03.991Z,-2.58
2022-12-15T02:06:32.752Z,-2.78
2022-12-15T02:09:02.024Z,-2.82
2022-12-15T02:11:58.422Z,-2.74
2022-12-15T02:14:38.562Z,-2.54
2022-12-15T02:17:15.899Z,-2.56
2022-12-15T02:20:16.705Z,-3.01
2022-12-15T02:23:11.066Z,-3.11
2022-12-15T02:25:59.581Z,-3.13
2022-12-15T02:28:42.917Z,-2.90
2022-12-15T02:31:34.233Z,-2.92
2022-12-15T02:34:16.302Z,-3.20
2022-12-15T02:36:47.855Z,-3.14
2022-12-15T02:39:16.296Z,-2.85
2022-12-15T02:41:46.096Z,-2.78
2022-12-15T02:44:19.102Z,-2.66
2022-12-15T02:47:07.381Z,-2.78
2022-12-15T02:49:44.386Z,-2.97
2022-12-15T02:52:24.027Z,-2.72
2022-12-15T02:55:05.659Z,-2.32
2022-12-15T02:57:43.449Z,-2.65
2022-12-15T03:00:12.820Z,-2.83
2022-12-15T03:02:45.698Z,-2.30
2022-12-15T03:05:14.067Z,-2.38
2022-12-15T03:07:42.753Z,-2.53
2022-12-15T03:10:12.959Z,-2.26
2022-12-15T03:12:40.435Z,-2.23
2022-12-15T03:15:08.649Z,-2.36
2022-12-15T03:17:36.127Z,-2.67
2022-12-15T03:20:05.668Z,-2.52
2022-12-15T03:22:33.089Z,-2.58
2022-12-15T03:25:00.495Z,-2.61
2022-12-15T03:27:28.136Z,-2.81
2022-12-15T03:29:55.515Z,-2.72
2022-12-15T03:32:22.915Z,-2.87
2022-12-15T03:34:50.444Z,-2.54
2022-12-15T03:37:19.150Z,-2.49
2022-12-15T03:39:46.557Z,-2.40
2022-12-15T03:42:13.956Z,-2.82
2022-12-15T03:44:41.360Z,-2.81
2022-12-15T03:47:08.767Z,-2.85
2022-12-15T03:49:36.193Z,-2.98
2022-12-15T03:52:03.747Z,-3.09
2022-12-15T03:54:32.570Z,-2.98
2022-12-15T03:57:00.115Z,-3.07
2022-12-15T03:59:27.526Z,-3.26
2022-12-15T04:01:55.017Z,-3.26
2022-12-15T04:04:22.468Z,-3.32
2022-12-15T04:06:49.886Z,-3.62
2022-12-15T04:09:17.355Z,-3.58
2022-12-15T04:11:46.130Z,-3.08
2022-12-15T04:14:13.785Z,-3.20
2022-12-15T04:16:41.292Z,-3.20
2022-12-15T04:19:26.184Z,-3.18
2022-12-15T04:21:53.622Z,-3.19
2022-12-15T04:24:38.570Z,-2.98
2022-12-15T04:27:25.276Z,-3.22
2022-12-15T04:30:10.140Z,-3.01
2022-12-15T04:32:54.824Z,-3.39
2022-12-15T04:35:40.044Z,-3.47
2022-12-15T04:38:24.828Z,-3.51
2022-12-15T04:41:10.112Z,-3.33
2022-12-15T04:43:56.767Z,-3.26
2022-12-15T04:46:41.702Z,-2.83
2022-12-15T04:49:26.860Z,-2.74
2022-12-15T04:52:11.738Z,-2.75
2022-12-15T04:54:56.542Z,-2.51
2022-12-15T04:57:41.425Z,-2.80
2022-12-15T05:00:30.112Z,-2.73
2022-12-15T05:03:18.332Z,-2.72
2022-12-15T05:06:03.656Z,-3.31
2022-12-15T05:08:50.281Z,-3.04
2022-12-15T05:11:35.644Z,-2.76
2022-12-15T05:14:20.540Z,-2.96
2022-12-15T05:17:07.124Z,-3.47
2022-12-15T05:19:51.941Z,-3.01
2022-12-15T05:22:36.774Z,-2.92
2022-12-15T05:25:22.055Z,-2.77
2022-12-15T05:28:06.810Z,-2.65
2022-12-15T05:30:51.530Z,-2.98
2022-12-15T05:33:20.340Z,-2.93
2022-12-15T05:35:47.749Z,-3.20
2022-12-15T05:38:15.174Z,-3.17
2022-12-15T05:40:43.566Z,-2.78
2022-12-15T05:43:11.056Z,-2.79
2022-12-15T05:45:38.447Z,-2.72
2022-12-15T05:48:06.982Z,-2.59
2022-12-15T05:50:35.737Z,-2.94
2022-12-15T05:53:03.111Z,-2.85
2022-12-15T05:55:30.511Z,-2.82
2022-12-15T05:57:57.909Z,-2.85
2022-12-15T06:00:25.925Z,-3.80
2022-12-15T06:02:53.359Z,-3.70
2022-12-15T06:05:20.765Z,-3.26
2022-12-15T06:07:49.482Z,-3.41
2022-12-15T06:10:17.082Z,-3.40
2022-12-15T06:12:44.521Z,-3.51
2022-12-15T06:15:12.141Z,-3.41
2022-12-15T06:17:39.605Z,-3.61
2022-12-15T06:20:08.264Z,-3.59
2022-12-15T06:22:35.663Z,-3.89
2022-12-15T06:25:04.859Z,-3.79
2022-12-15T06:27:32.234Z,-5.06
2022-12-15T06:29:59.649Z,-4.21
2022-12-15T06:32:27.068Z,-3.69
2022-12-15T06:34:54.519Z,-3.17
2022-12-15T06:37:21.918Z,-3.40
2022-12-15T06:39:49.410Z,-3.68
2022-12-15T06:42:18.196Z,-5.03
2022-12-15T06:44:45.592Z,-3.84
2022-12-15T06:47:13.244Z,-3.68
2022-12-15T06:49:40.689Z,-3.83
2022-12-15T06:52:09.152Z,-3.96
2022-12-15T06:54:36.803Z,-4.66
2022-12-15T06:57:04.505Z,-4.15
2022-12-15T06:59:33.583Z,-3.86
2022-12-15T07:02:01.563Z,-3.71
2022-12-15T07:04:30.415Z,-3.66
2022-12-15T07:06:58.073Z,-3.41
2022-12-15T07:09:27.456Z,-3.52
2022-12-15T07:11:55.042Z,-3.70
2022-12-15T07:14:23.851Z,-4.34
2022-12-15T07:16:52.880Z,-5.64
2022-12-15T07:19:20.448Z,-4.02
2022-12-15T07:21:47.992Z,-3.52
2022-12-15T07:24:15.655Z,-3.56
2022-12-15T07:26:43.337Z,-4.43
2022-12-15T07:29:11.863Z,-3.64
2022-12-15T07:31:39.854Z,-3.11
2022-12-15T07:34:08.932Z,-3.36
2022-12-15T07:36:36.473Z,-3.16
2022-12-15T07:39:05.741Z,-3.58
2022-12-15T07:41:33.664Z,-3.12
2022-12-15T07:44:02.360Z,-3.36
2022-12-15T07:46:31.267Z,-3.67
2022-12-15T07:48:59.061Z,-3.21
2022-12-15T07:51:28.174Z,-3.24
2022-12-15T07:53:58.258Z,-3.09
2022-12-15T07:56:25.879Z,-3.68
2022-12-15T07:58:54.089Z,-3.28
2022-12-15T08:01:22.309Z,-3.36
2022-12-15T08:03:50.277Z,-3.50
2022-12-15T08:06:18.128Z,-3.46
2022-12-15T08:08:50.265Z,-3.60
2022-12-15T08:11:20.471Z,-3.41
2022-12-15T08:14:05.696Z,-2.91
2022-12-15T08:16:37.453Z,-2.97
2022-12-15T08:19:06.542Z,-2.87
2022-12-15T08:21:35.092Z,-2.84
2022-12-15T08:24:04.301Z,-2.76
2022-12-15T08:26:32.207Z,-2.84
2022-12-15T08:29:31.825Z,-3.20
2022-12-15T08:31:51.875Z,-3.00
2022-12-15T08:34:19.741Z,-2.55
2022-12-15T08:36:47.680Z,-2.65
2022-12-15T08:39:16.818Z,-2.60
2022-12-15T08:41:44.556Z,-2.48
2022-12-15T08:44:12.211Z,-2.52
2022-12-15T08:46:39.979Z,-2.55
2022-12-15T08:49:08.721Z,-2.52
2022-12-15T08:51:36.201Z,-2.50
2022-12-15T08:54:04.030Z,-2.62
2022-12-15T08:56:33.100Z,-2.54
2022-12-15T08:59:02.435Z,-2.37
2022-12-15T09:01:32.505Z,-2.36
2022-12-15T09:04:01.418Z,-2.35
2022-12-15T09:06:31.972Z,-2.40
2022-12-15T09:09:01.755Z,-2.26
2022-12-15T09:11:30.852Z,-2.11
2022-12-15T09:14:00.018Z,-2.27
2022-12-15T09:16:28.551Z,-2.34
2022-12-15T09:18:58.424Z,-2.44
2022-12-15T09:21:32.505Z,-2.08
2022-12-15T09:24:02.102Z,-2.18
2022-12-15T09:26:32.303Z,-1.91
2022-12-15T09:29:02.387Z,-2.13
2022-12-15T09:31:32.609Z,-2.09
2022-12-15T09:34:01.877Z,-2.59
2022-12-15T09:36:30.948Z,-1.86
2022-12-15T09:38:58.958Z,-1.98
2022-12-15T09:41:28.539Z,-1.76
2022-12-15T09:43:59.640Z,-1.63
2022-12-15T09:46:39.545Z,-1.93
2022-12-15T09:49:14.777Z,-1.55
2022-12-15T09:51:49.050Z,-1.48
2022-12-15T09:54:16.832Z,-1.43
2022-12-15T09:56:51.035Z,-1.93
2022-12-15T09:59:30.629Z,-3.33
2022-12-15T10:02:21.320Z,-1.89
2022-12-15T10:04:57.024Z,-1.53
2022-12-15T10:07:31.033Z,-0.75
2022-12-15T10:09:59.034Z,-0.65
2022-12-15T10:12:34.273Z,-0.50
2022-12-15T10:15:14.623Z,-0.39
2022-12-15T10:17:50.334Z,-0.27
2022-12-15T10:20:20.635Z,-0.33
2022-12-15T10:25:36.897Z,-0.67
2022-12-15T10:28:30.108Z,-0.22
2022-12-15T10:31:02.336Z,-0.03
2022-12-15T10:33:35.812Z,-0.12
2022-12-15T10:36:08.757Z,-0.19
2022-12-15T10:38:38.578Z,-0.07
2022-12-15T10:41:08.399Z,-0.03
2022-12-15T10:43:38.388Z,-0.75
2022-12-15T10:46:14.572Z,-0.71
2022-12-15T10:48:48.664Z,-0.69
2022-12-15T10:51:20.744Z,-0.33
2022-12-15T10:53:50.916Z,-0.69
2022-12-15T10:56:32.680Z,-0.23
2022-12-15T10:59:03.658Z,0.24
2022-12-15T11:01:33.632Z,0.25
2022-12-15T11:04:02.824Z,0.20
2022-12-15T11:06:33.004Z,0.50
2022-12-15T11:09:10.123Z,0.61
2022-12-15T11:12:05.703Z,0.62
2022-12-15T11:14:44.622Z,0.53
2022-12-15T11:17:17.140Z,0.51
2022-12-15T11:19:58.105Z,0.96
2022-12-15T11:22:36.264Z,0.83
2022-12-15T11:25:10.386Z,0.79
2022-12-15T11:27:43.384Z,0.96
2022-12-15T11:30:15.044Z,1.02
2022-12-15T11:32:45.527Z,1.07
2022-12-15T11:35:23.435Z,1.23
2022-12-15T11:37:57.066Z,1.22
2022-12-15T11:40:40.110Z,1.28
2022-12-15T11:43:33.522Z,1.38
2022-12-15T11:46:22.909Z,1.47
2022-12-15T11:49:10.284Z,1.52
2022-12-15T11:51:45.135Z,1.50
2022-12-15T11:54:25.098Z,1.49
2022-12-15T11:57:00.606Z,1.53
2022-12-15T11:59:50.814Z,1.21
2022-12-15T12:02:36.621Z,1.06
2022-12-15T12:05:25.860Z,1.56
2022-12-15T12:08:03.246Z,1.40
2022-12-15T12:10:40.975Z,1.48
2022-12-15T12:13:16.309Z,1.12
2022-12-15T12:15:53.135Z,1.10
2022-12-15T12:18:25.963Z,1.20
2022-12-15T12:21:01.013Z,1.11
2022-12-15T12:23:35.481Z,1.23
2022-12-15T12:26:08.949Z,1.09
2022-12-15T12:28:46.737Z,1.19
2022-12-15T12:31:32.123Z,1.12
2022-12-15T12:34:09.829Z,0.93
2022-12-15T12:36:38.355Z,1.31
2022-12-15T12:39:10.493Z,1.24
2022-12-15T12:41:45.454Z,0.90
2022-12-15T12:44:23.694Z,1.14
2022-12-15T12:46:55.674Z,0.78
2022-12-15T12:49:29.499Z,1.20
2022-12-15T12:51:59.583Z,0.64
2022-12-15T12:54:44.657Z,0.72
2022-12-15T12:57:33.800Z,1.19
2022-12-15T13:00:06.092Z,0.87
2022-12-15T13:02:57.426Z,0.73
2022-12-15T13:05:29.487Z,1.36
2022-12-15T13:08:16.981Z,1.56
2022-12-15T13:10:47.909Z,1.02
2022-12-15T13:13:42.018Z,0.70
2022-12-15T13:16:13.647Z,0.54
2022-12-15T13:18:57.458Z,1.20
2022-12-15T13:21:53.408Z,1.50
2022-12-15T13:24:32.967Z,1.33
2022-12-15T13:27:15.211Z,1.47
2022-12-15T13:29:57.078Z,1.48
2022-12-15T13:32:35.152Z,1.48
2022-12-15T13:35:18.246Z,1.44
2022-12-15T13:37:50.482Z,1.27
2022-12-15T13:40:33.022Z,1.44
2022-12-15T13:43:10.883Z,1.45
2022-12-15T13:45:57.235Z,1.18
2022-12-15T13:48:35.283Z,1.27
2022-12-15T13:51:11.224Z,1.04
2022-12-15T13:53:43.340Z,0.95
2022-12-15T13:56:27.434Z,1.37
2022-12-15T13:59:02.064Z,1.29
2022-12-15T14:01:33.332Z,1.37
2022-12-15T14:04:06.626Z,1.38
2022-12-15T14:06:40.835Z,1.41
2022-12-15T14:09:14.956Z,1.59
2022-12-15T14:14:37.268Z,1.37
2022-12-15T14:17:08.560Z,1.52
2022-12-15T14:19:41.306Z,1.19
2022-12-15T14:25:15.602Z,1.37
2022-12-15T14:27:43.115Z,1.32
2022-12-15T14:30:22.292Z,1.02
2022-12-15T14:32:53.826Z,1.07
2022-12-15T14:35:27.913Z,1.07
2022-12-15T14:37:58.200Z,0.94
2022-12-15T14:40:28.920Z,1.10
2022-12-15T14:42:57.273Z,0.80
2022-12-15T14:45:28.199Z,0.86
2022-12-15T14:48:39.583Z,0.86
2022-12-15T14:50:48.458Z,0.82
2022-12-15T14:53:18.629Z,1.05
2022-12-15T14:55:46.331Z,1.08
2022-12-15T14:58:31.434Z,0.85
2022-12-15T15:01:01.205Z,0.72
2022-12-15T15:03:11.430Z,-0.26
2022-12-15T15:03:14.223Z,1.21
2022-12-15T15:03:36.501Z,0.64
2022-12-15T15:06:08.050Z,0.75
2022-12-15T15:08:37.600Z,0.96
2022-12-15T15:11:22.135Z,0.85
2022-12-15T15:13:49.654Z,0.78
2022-12-15T15:16:19.883Z,0.90
2022-12-15T15:18:51.055Z,0.94
2022-12-15T15:21:22.902Z,0.80
2022-12-15T15:24:01.017Z,0.91
2022-12-15T15:26:29.470Z,0.97
2022-12-15T15:28:57.526Z,0.96
2022-12-15T15:31:40.480Z,1.01
2022-12-15T15:34:09.145Z,0.78
2022-12-15T15:36:39.392Z,0.63
2022-12-15T15:39:13.141Z,0.77
2022-12-15T15:41:40.553Z,0.64
2022-12-15T15:44:13.613Z,0.81
2022-12-15T15:46:47.337Z,0.66
2022-12-15T15:49:17.990Z,0.63
2022-12-15T15:51:45.733Z,0.57
2022-12-15T15:54:15.733Z,0.61
2022-12-15T15:56:43.182Z,0.56
2022-12-15T15:59:12.945Z,0.60
2022-12-15T16:01:42.160Z,0.41
2022-12-15T16:04:09.748Z,0.33
2022-12-15T16:06:39.788Z,0.58
2022-12-15T16:09:15.023Z,0.57
2022-12-15T16:11:42.438Z,0.44
2022-12-15T16:14:12.859Z,0.26
2022-12-15T16:16:41.762Z,0.22
2022-12-15T16:19:09.383Z,0.50
2022-12-15T16:21:37.383Z,0.13
2022-12-15T16:24:09.843Z,0.52
2022-12-15T16:26:38.937Z,0.36
2022-12-15T16:29:15.261Z,0.39
2022-12-15T16:31:46.027Z,0.28
2022-12-15T16:34:13.888Z,0.40
2022-12-15T16:36:41.770Z,0.39
2022-12-15T16:39:25.341Z,0.52
2022-12-15T16:41:54.253Z,0.54
2022-12-15T16:44:22.336Z,0.14
2022-12-15T16:46:51.360Z,0.39
2022-12-15T16:49:18.884Z,0.49
2022-12-15T16:51:48.782Z,0.33
2022-12-15T16:54:18.715Z,0.07
2022-12-15T16:56:46.440Z,0.46
2022-12-15T16:59:34.563Z,0.39
2022-12-15T17:02:25.934Z,0.29
2022-12-15T17:04:55.341Z,0.47
2022-12-15T17:07:23.614Z,0.32
2022-12-15T17:09:51.763Z,0.30
2022-12-15T17:12:19.938Z,0.41
2022-12-15T17:14:47.606Z,0.38
2022-12-15T17:17:18.939Z,0.35
2022-12-15T17:20:19.714Z,0.46
2022-12-15T17:22:34.598Z,0.36
2022-12-15T17:25:02.064Z,0.37
2022-12-15T17:27:30.605Z,0.13
2022-12-15T17:30:00.896Z,0.44
2022-12-15T17:32:29.625Z,0.08
2022-12-15T17:34:57.513Z,0.41
2022-12-15T17:37:27.019Z,0.34
2022-12-15T17:39:56.936Z,0.44
2022-12-15T17:42:24.333Z,0.40
2022-12-15T17:44:51.965Z,0.24
2022-12-15T17:47:19.466Z,0.37
2022-12-15T17:49:48.305Z,0.50
2022-12-15T17:52:27.112Z,0.26
2022-12-15T17:54:55.271Z,0.13
2022-12-15T17:57:23.091Z,0.47
2022-12-15T17:59:50.515Z,0.24
2022-12-15T18:02:18.344Z,0.36
2022-12-15T18:04:46.158Z,0.38
2022-12-15T18:07:19.262Z,0.22
2022-12-15T18:09:47.662Z,0.36
2022-12-15T18:12:19.304Z,0.18
2022-12-15T18:14:46.759Z,0.46
2022-12-15T18:17:14.272Z,0.26
2022-12-15T18:19:41.706Z,0.15
2022-12-15T18:22:14.287Z,0.26
2022-12-15T18:24:43.281Z,0.18
2022-12-15T18:27:21.981Z,-0.01
2022-12-15T18:29:49.686Z,0.05
2022-12-15T18:32:18.033Z,0.19
2022-12-15T18:34:46.572Z,0.15
2022-12-15T18:37:16.933Z,0.10
2022-12-15T18:39:46.179Z,0.22
2022-12-15T18:42:16.066Z,0.36
2022-12-15T18:44:47.275Z,0.33
2022-12-15T18:47:17.805Z,0.04
2022-12-15T18:49:45.771Z,-0.02
2022-12-15T18:52:18.164Z,0.00
2022-12-15T18:54:47.694Z,0.10
2022-12-15T18:57:27.962Z,-0.48
2022-12-15T18:59:58.280Z,-0.71
2022-12-15T19:02:26.019Z,-0.13
2022-12-15T19:04:53.627Z,0.01
2022-12-15T19:07:21.146Z,0.02
2022-12-15T19:09:50.545Z,0.18
2022-12-15T19:12:18.479Z,-0.10
2022-12-15T19:14:47.195Z,-0.25
2022-12-15T19:17:34.121Z,-0.20
2022-12-15T19:20:20.082Z,-0.11
2022-12-15T19:22:49.384Z,-0.09
2022-12-15T19:25:25.443Z,-0.47
2022-12-15T19:27:58.487Z,-0.29
2022-12-15T19:30:28.123Z,-0.09
2022-12-15T19:32:56.183Z,-0.26
2022-12-15T19:35:24.763Z,-0.25
2022-12-15T19:37:55.052Z,-0.14
2022-12-15T19:40:28.288Z,-0.15
2022-12-15T19:42:56.011Z,-0.22
2022-12-15T19:45:25.822Z,0.09
2022-12-15T19:47:53.418Z,0.15
2022-12-15T19:50:22.637Z,0.01
2022-12-15T19:52:53.273Z,0.15
2022-12-15T19:55:26.376Z,0.13
2022-12-15T19:57:53.832Z,-0.36
2022-12-15T20:00:23.136Z,-0.13
2022-12-15T20:02:51.692Z,0.08
2022-12-15T20:05:20.237Z,0.01
2022-12-15T20:07:49.582Z,-0.11
2022-12-15T20:10:25.858Z,-0.20
2022-12-15T20:12:58.673Z,-0.15
2022-12-15T20:15:29.038Z,-0.01
2022-12-15T20:17:57.234Z,-0.05
2022-12-15T20:20:27.406Z,-0.22
2022-12-15T20:22:59.699Z,-0.30
2022-12-15T20:25:30.168Z,-0.31
2022-12-15T20:28:00.854Z,0.05
2022-12-15T20:30:35.456Z,-0.07
2022-12-15T20:33:05.363Z,-0.12
2022-12-15T20:35:38.628Z,-0.45
2022-12-15T20:38:19.237Z,-0.46
2022-12-15T20:40:46.824Z,-0.41
2022-12-15T20:43:17.651Z,-0.23
2022-12-15T20:46:04.014Z,-0.28
2022-12-15T20:48:39.823Z,-0.42
2022-12-15T20:51:10.058Z,-0.64
2022-12-15T20:53:38.839Z,-0.63
2022-12-15T20:56:07.417Z,-0.55
2022-12-15T20:58:39.222Z,-0.34
2022-12-15T21:01:18.885Z,-0.25
2022-12-15T21:03:47.562Z,-0.53
2022-12-15T21:06:15.646Z,-0.47
2022-12-15T21:08:43.350Z,-0.67
2022-12-15T21:11:23.551Z,-0.71
2022-12-15T21:13:58.927Z,-0.84
2022-12-15T21:16:29.093Z,-0.67
2022-12-15T21:19:19.134Z,-0.79
2022-12-15T21:21:48.054Z,-0.60
2022-12-15T21:24:18.254Z,-0.71
2022-12-15T21:26:50.921Z,-0.09
2022-12-15T21:29:23.731Z,-0.60
2022-12-15T21:31:54.503Z,-0.94
2022-12-15T21:34:24.737Z,-1.04
2022-12-15T21:36:55.284Z,-0.97
2022-12-15T21:39:33.831Z,0.42
2022-12-15T21:42:05.306Z,0.56
2022-12-15T21:44:34.162Z,-0.35
2022-12-15T21:47:01.854Z,-0.81
2022-12-15T21:49:28.349Z,-0.04
2022-12-15T21:51:58.244Z,-0.44
2022-12-15T21:54:31.168Z,-0.02
2022-12-15T21:56:59.503Z,0.04
2022-12-15T21:59:29.367Z,-0.30
2022-12-15T22:01:58.522Z,-0.38
2022-12-15T22:04:29.565Z,-0.33
2022-12-15T22:06:57.064Z,-0.38
2022-12-15T22:09:24.587Z,-0.48
2022-12-15T22:11:54.586Z,-0.55
2022-12-15T22:14:26.799Z,-0.57
2022-12-15T22:16:56.482Z,-0.62
2022-12-15T22:19:25.724Z,-0.64
2022-12-15T22:21:53.733Z,-0.65
2022-12-15T22:24:21.524Z,-0.75
2022-12-15T22:26:49.235Z,-1.08
2022-12-15T22:29:19.176Z,-1.16
2022-12-15T22:31:47.245Z,-1.09
2022-12-15T22:34:17.218Z,-0.75
2022-12-15T22:36:48.561Z,-0.75
2022-12-15T22:39:16.173Z,-0.89
2022-12-15T22:41:47.892Z,-0.76
2022-12-15T22:44:18.097Z,-0.94
2022-12-15T22:46:45.923Z,-0.91
2022-12-15T22:49:16.363Z,-0.64
2022-12-15T22:51:43.788Z,-0.95
2022-12-15T22:54:18.898Z,-0.90
2022-12-15T22:56:48.342Z,-0.80
2022-12-15T22:59:22.986Z,-0.91
2022-12-15T23:01:50.579Z,-0.85
2022-12-15T23:04:18.233Z,-0.86
2022-12-15T23:06:47.203Z,-1.10
2022-12-15T23:09:15.397Z,-0.97
2022-12-15T23:11:44.116Z,-1.16
2022-12-15T23:14:15.282Z,-0.80
2022-12-15T23:16:42.748Z,-0.90
2022-12-15T23:19:23.489Z,-0.91
2022-12-15T23:21:54.341Z,-1.09
2022-12-15T23:24:22.866Z,-0.81
2022-12-15T23:26:51.679Z,-0.89
2022-12-15T23:29:19.385Z,-1.12
2022-12-15T23:31:47.364Z,-1.08
2022-12-15T23:34:17.945Z,-1.44
2022-12-15T23:36:45.448Z,-1.02
2022-12-15T23:39:15.485Z,-0.96
2022-12-15T23:41:43.015Z,-0.93
2022-12-15T23:44:12.670Z,-1.14
2022-12-15T23:46:40.122Z,-1.08
2022-12-15T23:49:10.138Z,-0.98
2022-12-15T23:51:37.565Z,-0.93
2022-12-15T23:54:05.262Z,-0.90
2022-12-15T23:56:32.849Z,-0.99
2022-12-15T23:59:00.664Z,-1.32
